createdAt,value
2023-07-27T00:11:34.851Z,5.97
2023-07-27T00:26:37.074Z,5.53
2023-07-27T00:41:42.974Z,6.03
2023-07-27T00:56:45.266Z,6.22
2023-07-27T01:11:47.174Z,6.43
2023-07-27T01:27:16.070Z,5.18
2023-07-27T01:42:19.536Z,5.43
2023-07-27T01:57:21.516Z,5.38
2023-07-27T02:12:31.414Z,6.70
2023-07-27T02:27:33.382Z,6.93
2023-07-27T02:42:35.420Z,7.93
2023-07-27T02:57:37.482Z,8.38
2023-07-27T03:12:39.401Z,7.78
2023-07-27T03:27:41.472Z,7.90
2023-07-27T03:42:43.703Z,7.43
2023-07-27T03:57:48.207Z,8.63
2023-07-27T04:12:50.189Z,8.32
2023-07-27T04:27:52.769Z,8.37
2023-07-27T04:42:54.997Z,8.32
2023-07-27T04:57:57.019Z,7.95
2023-07-27T05:28:00.775Z,7.15
2023-07-27T05:43:02.803Z,7.05
2023-07-27T05:58:18.585Z,5.15
2023-07-27T06:13:25.808Z,5.00
2023-07-27T06:28:28.736Z,5.38
2023-07-27T06:43:30.765Z,4.88
2023-07-27T06:58:35.693Z,4.45
2023-07-27T07:13:37.578Z,4.30
2023-07-27T07:28:40.927Z,4.57
2023-07-27T07:43:43.051Z,4.18
2023-07-27T07:58:48.426Z,3.97
2023-07-27T08:13:53.861Z,4.25
2023-07-27T08:28:55.829Z,4.57
2023-07-27T08:44:00.122Z,4.30
2023-07-27T08:59:02.466Z,3.28
2023-07-27T09:14:07.177Z,3.63
2023-07-27T09:29:09.919Z,3.05
2023-07-27T09:44:19.738Z,3.03
2023-07-27T09:59:24.866Z,2.83
2023-07-27T10:14:30.412Z,3.10
2023-07-27T10:29:33.018Z,2.70
2023-07-27T10:44:43.802Z,2.78
2023-07-27T10:59:50.653Z,3.05
2023-07-27T11:14:53.443Z,2.83
2023-07-27T11:29:55.354Z,2.15
2023-07-27T11:45:01.348Z,3.78
2023-07-27T12:00:16.562Z,2.95
2023-07-27T12:15:32.617Z,3.30
2023-07-27T12:30:34.849Z,3.33
2023-07-27T12:45:38.658Z,3.10
2023-07-27T13:00:40.786Z,2.33
2023-07-27T13:15:42.752Z,3.42
2023-07-27T13:30:50.456Z,3.30
2023-07-27T13:45:53.009Z,2.95
2023-07-27T14:00:57.814Z,2.72
2023-07-27T14:16:00.063Z,7.45
2023-07-27T14:31:13.145Z,6.07
2023-07-27T14:46:16.482Z,6.07
2023-07-27T15:01:19.796Z,5.75
2023-07-27T15:16:21.899Z,12.25
2023-07-27T15:31:23.902Z,8.27
2023-07-27T15:46:26.024Z,6.47
2023-07-27T16:01:35.757Z,5.20
2023-07-27T16:16:42.635Z,6.50
2023-07-27T16:31:46.300Z,7.18
2023-07-27T16:46:50.390Z,7.63
2023-07-27T17:01:53.118Z,7.57
2023-07-27T17:16:57.286Z,7.10
2023-07-27T17:32:02.021Z,7.20
2023-07-27T17:47:04.361Z,6.35
2023-07-27T18:02:06.481Z,6.28
2023-07-27T18:17:08.971Z,5.53
2023-07-27T18:32:12.260Z,5.15
2023-07-27T18:47:14.348Z,4.18
2023-07-27T19:02:16.275Z,4.82
2023-07-27T19:17:22.944Z,4.80
2023-07-27T19:32:25.605Z,5.00
2023-07-27T19:47:28.041Z,3.50
2023-07-27T20:02:30.161Z,4.20
2023-07-27T20:17:32.487Z,4.88
2023-07-27T20:32:34.554Z,4.88
2023-07-27T20:47:37.457Z,4.40
2023-07-27T21:02:39.685Z,3.50
2023-07-27T21:17:42.759Z,1.30
2023-07-27T21:32:44.763Z,1.33
2023-07-27T21:47:46.884Z,2.78
2023-07-27T22:02:48.904Z,10.90
2023-07-27T22:17:51.002Z,4.20
2023-07-27T22:32:54.067Z,3.78
2023-07-27T22:47:56.131Z,3.87
2023-07-27T23:02:58.514Z,3.60
2023-07-27T23:18:00.520Z,4.18
2023-07-27T23:33:02.796Z,4.78
2023-07-27T23:48:05.158Z,4.97
